createdAt,value
2023-03-15T00:00:45.658Z,91.85
2023-03-15T00:01:47.327Z,91.80
2023-03-15T00:02:49.185Z,91.71
2023-03-15T00:03:50.793Z,92.13
2023-03-15T00:04:54.880Z,91.99
2023-03-15T00:05:56.391Z,91.81
2023-03-15T00:06:58.383Z,91.75
2023-03-15T00:07:59.890Z,91.79
2023-03-15T00:09:02.174Z,92.14
2023-03-15T00:10:04.388Z,92.04
2023-03-15T00:11:06.252Z,92.21
2023-03-15T00:12:11.317Z,91.94
2023-03-15T00:13:16.361Z,92.14
2023-03-15T00:14:18.618Z,92.06
2023-03-15T00:15:20.300Z,92.58
2023-03-15T00:16:21.695Z,92.32
2023-03-15T00:17:23.210Z,92.34
2023-03-15T00:18:24.940Z,91.78
2023-03-15T00:19:26.449Z,92.06
2023-03-15T00:20:27.948Z,91.88
2023-03-15T00:21:29.960Z,92.04
2023-03-15T00:22:31.339Z,92.09
2023-03-15T00:23:32.728Z,92.09
2023-03-15T00:24:34.247Z,92.34
2023-03-15T00:25:35.714Z,92.58
2023-03-15T00:26:37.614Z,92.37
2023-03-15T00:27:41.738Z,92.37
2023-03-15T00:28:43.660Z,92.12
2023-03-15T00:29:45.229Z,92.48
2023-03-15T00:30:46.703Z,92.49
2023-03-15T00:31:51.606Z,92.51
2023-03-15T00:32:56.750Z,92.18
2023-03-15T00:33:58.374Z,92.38
2023-03-15T00:34:59.895Z,92.70
2023-03-15T00:36:05.780Z,92.49
2023-03-15T00:37:07.456Z,92.38
2023-03-15T00:38:09.555Z,92.64
2023-03-15T00:39:11.181Z,92.69
2023-03-15T00:40:16.112Z,92.27
2023-03-15T00:41:18.696Z,92.06
2023-03-15T00:42:20.266Z,92.36
2023-03-15T00:43:23.428Z,91.88
2023-03-15T00:44:25.123Z,92.46
2023-03-15T00:45:26.621Z,92.23
2023-03-15T00:46:28.472Z,92.27
2023-03-15T00:47:30.194Z,92.48
2023-03-15T00:48:31.667Z,92.16
2023-03-15T00:49:34.151Z,92.52
2023-03-15T00:50:39.102Z,92.73
2023-03-15T00:51:40.562Z,92.73
2023-03-15T00:52:44.315Z,93.05
2023-03-15T00:53:48.506Z,92.76
2023-03-15T00:54:53.155Z,92.82
2023-03-15T00:55:54.748Z,92.79
2023-03-15T00:56:56.189Z,93.14
2023-03-15T00:57:58.377Z,93.11
2023-03-15T00:59:00.223Z,92.94
2023-03-15T01:00:10.171Z,92.94
2023-03-15T01:01:19.557Z,93.17
2023-03-15T01:02:22.282Z,93.11
2023-03-15T01:03:23.739Z,92.89
2023-03-15T01:04:25.187Z,92.62
2023-03-15T01:05:26.780Z,92.57
2023-03-15T01:06:29.205Z,92.75
2023-03-15T01:07:33.531Z,92.79
2023-03-15T01:08:35.032Z,92.88
2023-03-15T01:09:36.522Z,92.50
2023-03-15T01:10:39.160Z,92.69
2023-03-15T01:11:41.821Z,92.94
2023-03-15T01:12:45.078Z,92.45
2023-03-15T01:13:46.716Z,92.54
2023-03-15T01:14:48.394Z,92.66
2023-03-15T01:15:50.236Z,93.05
2023-03-15T01:16:55.318Z,93.00
2023-03-15T01:17:56.856Z,93.07
2023-03-15T01:18:59.370Z,93.31
2023-03-15T01:20:00.855Z,93.26
2023-03-15T01:21:02.293Z,93.25
2023-03-15T01:22:03.803Z,93.58
2023-03-15T01:23:05.178Z,93.37
2023-03-15T01:24:06.982Z,93.20
2023-03-15T01:25:09.428Z,93.21
2023-03-15T01:26:12.834Z,93.17
2023-03-15T01:27:14.510Z,93.43
2023-03-15T01:28:18.700Z,93.05
2023-03-15T01:29:22.642Z,93.39
2023-03-15T01:30:24.271Z,93.36
2023-03-15T01:31:26.945Z,93.29
2023-03-15T01:32:28.891Z,93.58
2023-03-15T01:33:32.880Z,93.84
2023-03-15T01:34:36.958Z,94.04
2023-03-15T01:35:38.457Z,94.29
2023-03-15T01:36:45.244Z,94.04
2023-03-15T01:37:49.467Z,94.01
2023-03-15T01:38:51.283Z,94.31
2023-03-15T01:39:58.043Z,94.13
2023-03-15T01:40:59.929Z,94.17
2023-03-15T01:42:04.507Z,93.87
2023-03-15T01:43:06.456Z,94.04
2023-03-15T01:44:18.599Z,94.40
2023-03-15T01:45:59.907Z,94.38
2023-03-15T01:47:02.702Z,94.57
2023-03-15T01:48:05.402Z,94.54
2023-03-15T01:49:16.201Z,94.20
2023-03-15T01:50:25.435Z,94.28
2023-03-15T01:51:31.257Z,93.82
2023-03-15T01:52:35.495Z,94.15
2023-03-15T01:53:38.082Z,94.15
2023-03-15T01:54:49.672Z,94.25
2023-03-15T01:55:53.143Z,94.22
2023-03-15T01:57:04.428Z,94.12
2023-03-15T01:58:06.958Z,93.82
2023-03-15T01:59:17.076Z,93.68
2023-03-15T02:00:20.323Z,94.05
2023-03-15T02:01:29.988Z,93.53
2023-03-15T02:02:36.318Z,93.78
2023-03-15T02:03:46.526Z,93.37
2023-03-15T02:04:52.396Z,93.36
2023-03-15T02:05:59.785Z,93.77
2023-03-15T02:07:11.499Z,93.56
2023-03-15T02:08:17.374Z,93.75
2023-03-15T02:09:22.542Z,93.94
2023-03-15T02:10:40.675Z,94.06
2023-03-15T02:11:43.087Z,94.12
2023-03-15T02:12:47.674Z,93.98
2023-03-15T02:13:49.590Z,94.14
2023-03-15T02:14:51.990Z,94.07
2023-03-15T02:15:56.317Z,93.95
2023-03-15T02:17:10.554Z,93.83
2023-03-15T02:18:12.911Z,93.88
2023-03-15T02:19:45.497Z,94.15
2023-03-15T02:20:53.735Z,93.66
2023-03-15T02:22:01.324Z,93.56
2023-03-15T02:23:07.867Z,93.65
2023-03-15T02:24:11.589Z,93.71
2023-03-15T02:25:14.913Z,93.69
2023-03-15T02:26:16.362Z,93.33
2023-03-15T02:27:25.719Z,93.41
2023-03-15T02:28:27.804Z,93.59
2023-03-15T02:29:29.771Z,94.21
2023-03-15T02:30:31.241Z,94.19
2023-03-15T02:31:38.094Z,94.12
2023-03-15T02:32:41.743Z,94.28
2023-03-15T02:33:47.476Z,94.04
2023-03-15T02:34:49.332Z,94.08
2023-03-15T02:35:51.400Z,93.82
2023-03-15T02:36:54.108Z,93.78
2023-03-15T02:37:55.763Z,94.20
2023-03-15T02:38:57.550Z,93.63
2023-03-15T02:39:58.984Z,93.89
2023-03-15T02:41:00.543Z,93.53
2023-03-15T02:42:02.000Z,93.67
2023-03-15T02:43:13.956Z,93.56
2023-03-15T02:44:21.507Z,93.56
2023-03-15T02:45:27.662Z,94.10
2023-03-15T02:46:29.341Z,93.80
2023-03-15T02:47:33.621Z,93.82
2023-03-15T02:48:35.874Z,93.72
2023-03-15T02:49:40.011Z,93.75
2023-03-15T02:50:42.868Z,93.83
2023-03-15T02:51:44.360Z,93.69
2023-03-15T02:52:46.063Z,94.07
2023-03-15T02:53:49.906Z,94.00
2023-03-15T02:54:51.303Z,93.99
2023-03-15T02:55:55.240Z,93.93
2023-03-15T02:56:58.998Z,94.06
2023-03-15T02:58:01.514Z,94.13
2023-03-15T02:59:05.134Z,93.78
2023-03-15T03:00:13.278Z,93.61
2023-03-15T03:01:15.995Z,93.76
2023-03-15T03:02:18.728Z,93.91
2023-03-15T03:03:21.440Z,93.58
2023-03-15T03:04:23.292Z,93.85
2023-03-15T03:05:24.930Z,94.39
2023-03-15T03:06:26.399Z,94.49
2023-03-15T03:07:28.386Z,94.63
2023-03-15T03:08:35.451Z,94.54
2023-03-15T03:09:37.264Z,94.56
2023-03-15T03:10:39.022Z,94.92
2023-03-15T03:11:40.612Z,94.88
2023-03-15T03:12:42.631Z,94.69
2023-03-15T03:13:44.233Z,94.81
2023-03-15T03:14:45.650Z,94.89
2023-03-15T03:15:58.482Z,95.01
2023-03-15T03:17:04.361Z,95.45
2023-03-15T03:18:05.838Z,95.67
2023-03-15T03:19:07.440Z,95.88
2023-03-15T03:20:13.705Z,95.83
2023-03-15T03:21:19.810Z,96.09
2023-03-15T03:22:24.499Z,95.97
2023-03-15T03:23:29.056Z,95.86
2023-03-15T03:24:32.405Z,95.63
2023-03-15T03:25:33.987Z,95.68
2023-03-15T03:26:37.715Z,95.40
2023-03-15T03:27:40.189Z,95.51
2023-03-15T03:28:44.811Z,95.85
2023-03-15T03:29:46.279Z,95.96
2023-03-15T03:30:50.788Z,95.79
2023-03-15T03:31:52.403Z,95.59
2023-03-15T03:32:55.897Z,95.50
2023-03-15T03:33:57.418Z,95.85
2023-03-15T03:34:59.822Z,95.50
2023-03-15T03:36:02.320Z,95.58
2023-03-15T03:37:04.694Z,95.49
2023-03-15T03:38:46.054Z,95.21
2023-03-15T03:39:48.513Z,95.22
2023-03-15T03:40:50.870Z,94.99
2023-03-15T03:41:52.403Z,95.18
2023-03-15T03:42:56.503Z,95.04
2023-03-15T03:44:00.809Z,95.42
2023-03-15T03:45:02.353Z,95.38
2023-03-15T03:46:14.649Z,95.31
2023-03-15T03:47:21.355Z,94.97
2023-03-15T03:48:22.781Z,94.95
2023-03-15T03:49:24.756Z,95.03
2023-03-15T03:50:26.401Z,94.97
2023-03-15T03:51:30.732Z,94.86
2023-03-15T03:52:32.236Z,95.30
2023-03-15T03:53:41.348Z,95.23
2023-03-15T03:54:43.225Z,95.16
2023-03-15T03:55:46.404Z,94.74
2023-03-15T03:56:52.315Z,94.96
2023-03-15T03:57:54.932Z,94.95
2023-03-15T03:59:16.094Z,94.97
2023-03-15T04:00:26.452Z,94.87
2023-03-15T04:01:27.922Z,95.28
2023-03-15T04:02:30.135Z,94.85
2023-03-15T04:03:38.432Z,95.09
2023-03-15T04:04:51.892Z,95.00
2023-03-15T04:05:56.532Z,94.97
2023-03-15T04:06:59.147Z,94.83
2023-03-15T04:08:05.924Z,94.65
2023-03-15T04:09:13.541Z,94.56
2023-03-15T04:10:17.604Z,94.82
2023-03-15T04:11:26.726Z,94.76
2023-03-15T04:12:33.429Z,94.21
2023-03-15T04:13:34.950Z,94.23
2023-03-15T04:14:36.988Z,94.47
2023-03-15T04:15:44.163Z,94.22
2023-03-15T04:16:45.615Z,94.21
2023-03-15T04:17:55.940Z,94.02
2023-03-15T04:18:59.068Z,93.95
2023-03-15T04:20:07.018Z,93.93
2023-03-15T04:21:11.631Z,93.74
2023-03-15T04:22:16.254Z,93.66
2023-03-15T04:23:40.815Z,93.81
2023-03-15T04:25:11.561Z,94.08
2023-03-15T04:26:36.159Z,94.45
2023-03-15T04:28:05.181Z,94.88
2023-03-15T04:29:29.563Z,94.80
2023-03-15T04:31:01.710Z,94.36
2023-03-15T04:32:21.599Z,94.24
2023-03-15T04:33:40.885Z,94.32
2023-03-15T04:34:55.984Z,93.85
2023-03-15T04:36:04.584Z,93.60
2023-03-15T04:37:17.908Z,93.63
2023-03-15T04:38:37.338Z,93.57
2023-03-15T04:39:58.164Z,93.42
2023-03-15T04:41:32.218Z,92.78
2023-03-15T04:42:45.850Z,92.67
2023-03-15T04:44:08.637Z,92.66
2023-03-15T04:45:28.734Z,92.67
2023-03-15T04:46:45.615Z,92.57
2023-03-15T04:47:55.820Z,92.48
2023-03-15T04:49:15.436Z,92.47
2023-03-15T04:50:31.439Z,92.39
2023-03-15T04:51:53.225Z,92.37
2023-03-15T04:53:23.657Z,92.11
2023-03-15T04:54:39.296Z,92.19
2023-03-15T04:56:04.826Z,92.36
2023-03-15T04:57:24.913Z,92.13
2023-03-15T04:58:46.717Z,92.25
2023-03-15T05:00:09.844Z,92.12
2023-03-15T05:01:19.623Z,92.15
2023-03-15T05:02:41.472Z,91.99
2023-03-15T05:03:53.728Z,91.57
2023-03-15T05:05:24.748Z,91.77
2023-03-15T05:06:46.431Z,91.77
2023-03-15T05:08:17.391Z,91.65
2023-03-15T05:09:39.940Z,91.33
2023-03-15T05:11:02.393Z,91.38
2023-03-15T05:12:24.542Z,91.00
2023-03-15T05:13:31.047Z,91.34
2023-03-15T05:14:56.166Z,91.36
2023-03-15T05:16:09.800Z,91.26
2023-03-15T05:17:21.208Z,91.19
2023-03-15T05:18:41.520Z,91.30
2023-03-15T05:19:42.938Z,90.91
2023-03-15T05:21:03.982Z,90.99
2023-03-15T05:22:25.572Z,90.90
2023-03-15T05:23:53.243Z,91.11
2023-03-15T05:25:15.406Z,91.01
2023-03-15T05:26:46.445Z,91.11
2023-03-15T05:28:05.449Z,91.11
2023-03-15T05:29:14.527Z,90.91
2023-03-15T05:30:39.346Z,90.95
2023-03-15T05:31:49.190Z,90.88
2023-03-15T05:33:11.753Z,90.55
2023-03-15T05:34:24.174Z,90.77
2023-03-15T05:35:34.438Z,91.17
2023-03-15T05:36:46.590Z,91.40
2023-03-15T05:38:06.864Z,91.63
2023-03-15T05:39:09.087Z,91.58
2023-03-15T05:40:32.911Z,92.17
2023-03-15T05:41:44.389Z,91.87
2023-03-15T05:43:17.238Z,91.74
2023-03-15T05:44:43.487Z,91.93
2023-03-15T05:46:03.888Z,92.23
2023-03-15T05:47:32.056Z,91.94
2023-03-15T05:48:50.209Z,92.42
2023-03-15T05:50:14.677Z,92.22
2023-03-15T05:51:43.097Z,92.85
2023-03-15T05:53:10.876Z,93.17
2023-03-15T05:54:35.458Z,92.98
2023-03-15T05:56:09.187Z,93.20
2023-03-15T05:57:16.459Z,93.90
2023-03-15T05:58:40.467Z,94.67
2023-03-15T05:59:47.972Z,94.58
2023-03-15T06:01:17.892Z,95.75
2023-03-15T06:02:34.231Z,95.77
2023-03-15T06:03:51.234Z,96.24
2023-03-15T06:04:56.627Z,96.05
2023-03-15T06:06:01.082Z,96.48
2023-03-15T06:07:09.996Z,96.40
2023-03-15T06:08:11.456Z,96.58
2023-03-15T06:09:18.333Z,96.69
2023-03-15T06:10:28.450Z,96.72
2023-03-15T06:11:31.926Z,96.88
2023-03-15T06:12:38.091Z,96.87
2023-03-15T06:13:39.636Z,96.75
2023-03-15T06:14:49.821Z,96.67
2023-03-15T06:15:51.701Z,96.56
2023-03-15T06:16:54.810Z,96.41
2023-03-15T06:17:57.899Z,96.84
2023-03-15T06:18:59.783Z,96.88
2023-03-15T06:20:01.648Z,96.63
2023-03-15T06:21:03.219Z,96.61
2023-03-15T06:22:04.996Z,96.98
2023-03-15T06:23:15.937Z,97.51
2023-03-15T06:24:22.360Z,97.38
2023-03-15T06:25:25.986Z,97.14
2023-03-15T06:26:27.738Z,97.17
2023-03-15T06:27:34.298Z,97.46
2023-03-15T06:28:36.199Z,97.33
2023-03-15T06:29:38.943Z,96.95
2023-03-15T06:30:40.995Z,97.57
2023-03-15T06:31:44.186Z,97.80
2023-03-15T06:32:46.739Z,97.64
2023-03-15T06:33:52.245Z,97.73
2023-03-15T06:34:54.955Z,97.52
2023-03-15T06:35:56.538Z,97.36
2023-03-15T06:36:57.961Z,97.44
2023-03-15T06:37:59.451Z,97.42
2023-03-15T06:39:02.947Z,97.45
2023-03-15T06:40:09.176Z,97.55
2023-03-15T06:41:15.132Z,97.61
2023-03-15T06:42:17.576Z,97.46
2023-03-15T06:43:19.802Z,96.85
2023-03-15T06:44:21.871Z,97.05
2023-03-15T06:45:30.382Z,97.12
2023-03-15T06:46:34.594Z,96.92
2023-03-15T06:47:36.180Z,96.72
2023-03-15T06:48:39.084Z,96.71
2023-03-15T06:49:42.188Z,96.46
2023-03-15T06:50:47.609Z,96.48
2023-03-15T06:51:52.472Z,96.00
2023-03-15T06:52:54.359Z,96.17
2023-03-15T06:53:56.099Z,96.05
2023-03-15T06:54:58.997Z,95.79
2023-03-15T06:56:00.662Z,95.62
2023-03-15T06:57:02.198Z,95.81
2023-03-15T06:58:03.764Z,96.01
2023-03-15T06:59:08.667Z,95.86
2023-03-15T07:00:11.468Z,95.32
2023-03-15T07:01:13.932Z,95.45
2023-03-15T07:02:16.945Z,95.16
2023-03-15T07:03:22.298Z,95.29
2023-03-15T07:04:25.946Z,95.38
2023-03-15T07:05:27.944Z,94.98
2023-03-15T07:06:29.593Z,94.72
2023-03-15T07:07:31.008Z,94.63
2023-03-15T07:08:34.732Z,94.68
2023-03-15T07:09:36.324Z,94.59
2023-03-15T07:10:37.931Z,94.61
2023-03-15T07:11:40.963Z,94.19
2023-03-15T07:12:45.391Z,94.25
2023-03-15T07:13:47.289Z,93.98
2023-03-15T07:14:49.707Z,94.14
2023-03-15T07:15:52.470Z,94.04
2023-03-15T07:16:54.104Z,94.00
2023-03-15T07:17:57.828Z,93.75
2023-03-15T07:19:00.048Z,93.96
2023-03-15T07:20:01.492Z,93.74
2023-03-15T07:21:03.812Z,93.61
2023-03-15T07:22:08.436Z,93.69
2023-03-15T07:23:10.038Z,94.05
2023-03-15T07:24:11.490Z,93.72
2023-03-15T07:25:15.350Z,94.02
2023-03-15T07:26:16.801Z,94.37
2023-03-15T07:27:19.526Z,94.07
2023-03-15T07:28:23.226Z,94.41
2023-03-15T07:29:25.067Z,94.79
2023-03-15T07:30:28.046Z,95.07
2023-03-15T07:31:29.503Z,94.96
2023-03-15T07:32:31.980Z,95.01
2023-03-15T07:33:35.953Z,95.51
2023-03-15T07:34:37.477Z,95.26
2023-03-15T07:35:39.500Z,95.45
2023-03-15T07:36:41.140Z,95.42
2023-03-15T07:37:44.692Z,95.83
2023-03-15T07:38:46.341Z,95.75
2023-03-15T07:39:47.843Z,95.59
2023-03-15T07:40:51.669Z,95.63
2023-03-15T07:41:53.421Z,95.65
2023-03-15T07:43:04.481Z,95.99
2023-03-15T07:44:06.020Z,95.96
2023-03-15T07:45:10.431Z,96.30
2023-03-15T07:46:11.980Z,96.02
2023-03-15T07:47:14.775Z,96.08
2023-03-15T07:48:16.384Z,96.13
2023-03-15T07:49:18.294Z,95.89
2023-03-15T07:50:19.762Z,96.02
2023-03-15T07:51:21.118Z,96.08
2023-03-15T07:52:23.074Z,95.72
2023-03-15T07:53:24.514Z,95.69
2023-03-15T07:54:27.897Z,95.85
2023-03-15T07:55:31.220Z,95.54
2023-03-15T07:56:35.074Z,95.27
2023-03-15T07:57:36.526Z,95.17
2023-03-15T07:58:38.347Z,95.09
2023-03-15T07:59:39.989Z,94.79
2023-03-15T08:00:41.556Z,94.85
2023-03-15T08:01:43.010Z,94.46
2023-03-15T08:02:44.502Z,94.34
2023-03-15T08:03:45.915Z,94.23
2023-03-15T08:04:48.805Z,94.42
2023-03-15T08:05:50.747Z,94.22
2023-03-15T08:06:52.206Z,94.15
2023-03-15T08:07:53.913Z,94.51
2023-03-15T08:08:55.302Z,93.98
2023-03-15T08:09:58.498Z,94.30
2023-03-15T08:11:00.046Z,94.07
2023-03-15T08:12:01.834Z,93.78
2023-03-15T08:13:03.595Z,93.86
2023-03-15T08:14:05.747Z,94.31
2023-03-15T08:15:07.685Z,94.55
2023-03-15T08:16:09.442Z,94.52
2023-03-15T08:17:13.145Z,94.64
2023-03-15T08:18:14.692Z,94.81
2023-03-15T08:19:16.466Z,94.63
2023-03-15T08:20:18.381Z,94.84
2023-03-15T08:21:19.940Z,94.97
2023-03-15T08:22:21.520Z,94.58
2023-03-15T08:23:25.289Z,94.69
2023-03-15T08:24:27.201Z,94.72
2023-03-15T08:25:32.004Z,94.64
2023-03-15T08:26:33.773Z,94.92
2023-03-15T08:27:35.264Z,94.75
2023-03-15T08:28:36.693Z,94.81
2023-03-15T08:29:38.495Z,94.50
2023-03-15T08:30:40.783Z,94.58
2023-03-15T08:31:42.375Z,94.63
2023-03-15T08:32:45.079Z,94.64
2023-03-15T08:33:46.590Z,94.43
2023-03-15T08:34:53.145Z,94.88
2023-03-15T08:35:57.020Z,94.75
2023-03-15T08:36:58.973Z,94.81
2023-03-15T08:38:02.557Z,95.43
2023-03-15T08:39:05.518Z,95.60
2023-03-15T08:40:11.273Z,95.64
2023-03-15T08:41:13.230Z,95.45
2023-03-15T08:42:14.685Z,95.32
2023-03-15T08:43:16.146Z,95.44
2023-03-15T08:44:20.826Z,95.75
2023-03-15T08:45:24.374Z,95.75
2023-03-15T08:46:26.221Z,95.68
2023-03-15T08:47:30.722Z,95.92
2023-03-15T08:48:34.313Z,96.01
2023-03-15T08:49:35.859Z,95.96
2023-03-15T08:50:38.797Z,95.92
2023-03-15T08:51:42.878Z,96.02
2023-03-15T08:52:44.457Z,96.21
2023-03-15T08:53:46.042Z,95.96
2023-03-15T08:54:50.000Z,96.00
2023-03-15T08:55:51.550Z,95.65
2023-03-15T08:56:52.947Z,95.86
2023-03-15T08:57:54.553Z,95.54
2023-03-15T08:58:55.992Z,95.98
2023-03-15T08:59:57.608Z,95.49
2023-03-15T09:01:01.852Z,95.32
2023-03-15T09:02:03.783Z,94.83
2023-03-15T09:03:05.325Z,94.34
2023-03-15T09:04:06.960Z,94.10
2023-03-15T09:05:14.425Z,93.66
2023-03-15T09:06:16.012Z,93.65
2023-03-15T09:07:20.659Z,93.25
2023-03-15T09:08:22.099Z,92.83
2023-03-15T09:09:25.132Z,92.83
2023-03-15T09:10:26.997Z,92.70
2023-03-15T09:11:29.725Z,92.62
2023-03-15T09:12:31.112Z,92.49
2023-03-15T09:13:32.867Z,92.43
2023-03-15T09:14:36.787Z,92.43
2023-03-15T09:15:38.467Z,92.48
2023-03-15T09:16:39.956Z,92.65
2023-03-15T09:17:41.935Z,92.79
2023-03-15T09:18:48.201Z,93.13
2023-03-15T09:19:49.737Z,93.07
2023-03-15T09:20:51.170Z,93.15
2023-03-15T09:21:52.882Z,93.15
2023-03-15T09:22:58.451Z,93.38
2023-03-15T09:24:04.041Z,93.52
2023-03-15T09:25:05.710Z,93.74
2023-03-15T09:26:07.489Z,93.57
2023-03-15T09:27:11.723Z,94.11
2023-03-15T09:28:13.340Z,94.25
2023-03-15T09:29:15.889Z,94.40
2023-03-15T09:30:17.977Z,94.73
2023-03-15T09:31:19.793Z,94.99
2023-03-15T09:32:21.557Z,95.16
2023-03-15T09:33:22.951Z,95.44
2023-03-15T09:34:25.351Z,95.40
2023-03-15T09:35:31.663Z,95.31
2023-03-15T09:36:35.442Z,95.41
2023-03-15T09:37:36.883Z,95.20
2023-03-15T09:38:38.544Z,95.28
2023-03-15T09:39:40.067Z,95.22
2023-03-15T09:40:44.950Z,94.83
2023-03-15T09:41:49.109Z,95.05
2023-03-15T09:42:54.275Z,94.71
2023-03-15T09:44:09.234Z,95.10
2023-03-15T09:45:29.565Z,94.78
2023-03-15T09:46:32.675Z,95.05
2023-03-15T09:47:44.552Z,94.91
2023-03-15T09:48:46.057Z,95.09
2023-03-15T09:49:53.486Z,95.13
2023-03-15T09:51:00.890Z,94.95
2023-03-15T09:52:14.178Z,94.91
2023-03-15T09:53:20.190Z,94.89
2023-03-15T09:54:23.690Z,95.28
2023-03-15T09:55:31.658Z,95.10
2023-03-15T09:56:36.561Z,95.50
2023-03-15T09:57:43.629Z,95.26
2023-03-15T09:58:51.452Z,95.51
2023-03-15T09:59:54.507Z,95.42
2023-03-15T10:01:17.095Z,95.37
2023-03-15T10:02:23.634Z,95.40
2023-03-15T10:03:32.098Z,95.38
2023-03-15T10:04:39.988Z,95.04
2023-03-15T10:05:48.983Z,95.29
2023-03-15T10:06:54.213Z,95.24
2023-03-15T10:07:55.917Z,95.06
2023-03-15T10:09:01.844Z,94.80
2023-03-15T10:10:05.105Z,94.53
2023-03-15T10:11:15.070Z,94.21
2023-03-15T10:12:23.596Z,94.34
2023-03-15T10:13:49.906Z,94.67
2023-03-15T10:14:54.269Z,94.89
2023-03-15T10:16:08.104Z,95.02
2023-03-15T10:17:14.389Z,94.76
2023-03-15T10:18:42.828Z,94.77
2023-03-15T10:19:52.126Z,94.67
2023-03-15T10:20:59.753Z,94.75
2023-03-15T10:22:13.490Z,94.48
2023-03-15T10:23:21.003Z,94.17
2023-03-15T10:24:35.797Z,94.05
2023-03-15T10:25:39.731Z,93.98
2023-03-15T10:27:50.881Z,93.92
2023-03-15T10:28:53.393Z,93.47
2023-03-15T10:29:55.916Z,93.05
2023-03-15T10:31:01.345Z,92.66
2023-03-15T10:32:04.578Z,92.37
2023-03-15T10:33:24.686Z,91.88
2023-03-15T10:34:26.868Z,91.86
2023-03-15T10:35:29.358Z,91.67
2023-03-15T10:36:31.059Z,91.39
2023-03-15T10:37:36.590Z,91.63
2023-03-15T10:38:38.566Z,91.40
2023-03-15T10:39:39.917Z,91.38
2023-03-15T10:41:02.778Z,91.30
2023-03-15T10:42:04.459Z,91.47
2023-03-15T10:43:14.525Z,91.83
2023-03-15T10:44:18.441Z,91.80
2023-03-15T10:45:23.973Z,91.42
2023-03-15T10:46:25.449Z,91.71
2023-03-15T10:47:30.705Z,91.60
2023-03-15T10:48:33.844Z,91.65
2023-03-15T10:49:36.747Z,92.07
2023-03-15T10:50:38.945Z,92.06
2023-03-15T10:51:45.088Z,92.43
2023-03-15T10:52:46.634Z,92.50
2023-03-15T10:53:53.023Z,92.57
2023-03-15T10:54:58.810Z,92.48
2023-03-15T10:56:07.594Z,92.88
2023-03-15T10:57:14.435Z,92.85
2023-03-15T10:58:18.775Z,92.97
2023-03-15T10:59:22.846Z,93.17
2023-03-15T11:00:32.280Z,93.18
2023-03-15T11:01:38.223Z,93.04
2023-03-15T11:02:48.713Z,93.07
2023-03-15T11:04:09.979Z,92.73
2023-03-15T11:05:12.409Z,92.36
2023-03-15T11:06:21.685Z,92.04
2023-03-15T11:07:23.304Z,91.93
2023-03-15T11:08:35.520Z,91.28
2023-03-15T11:09:44.736Z,91.57
2023-03-15T11:10:49.879Z,91.32
2023-03-15T11:11:52.411Z,91.30
2023-03-15T11:13:14.207Z,91.54
2023-03-15T11:14:15.624Z,91.89
2023-03-15T11:15:18.518Z,91.50
2023-03-15T11:16:23.998Z,91.49
2023-03-15T11:17:28.300Z,91.68
2023-03-15T11:18:37.945Z,91.70
2023-03-15T11:19:45.103Z,91.59
2023-03-15T11:20:46.566Z,91.40
2023-03-15T11:21:52.172Z,91.33
2023-03-15T11:22:53.749Z,91.12
2023-03-15T11:23:56.033Z,90.28
2023-03-15T11:24:59.084Z,90.37
2023-03-15T11:26:01.523Z,90.19
2023-03-15T11:27:09.675Z,90.26
2023-03-15T11:28:14.240Z,89.95
2023-03-15T11:29:21.499Z,90.14
2023-03-15T11:30:27.600Z,89.55
2023-03-15T11:31:30.082Z,88.66
2023-03-15T11:32:33.937Z,88.62
2023-03-15T11:33:41.496Z,88.18
2023-03-15T11:35:09.250Z,88.25
2023-03-15T11:36:14.178Z,87.24
2023-03-15T11:37:35.833Z,86.47
2023-03-15T11:38:39.202Z,86.57
2023-03-15T11:39:45.784Z,86.92
2023-03-15T11:40:52.264Z,86.33
2023-03-15T11:41:56.827Z,86.61
2023-03-15T11:43:01.276Z,86.94
2023-03-15T11:44:06.473Z,86.86
2023-03-15T11:45:30.872Z,86.27
2023-03-15T11:46:57.711Z,86.04
2023-03-15T11:48:22.527Z,85.55
2023-03-15T11:49:33.144Z,83.55
2023-03-15T11:50:34.570Z,83.67
2023-03-15T11:51:36.492Z,83.39
2023-03-15T11:52:40.717Z,82.75
2023-03-15T11:53:46.442Z,82.85
2023-03-15T11:54:47.934Z,82.79
2023-03-15T11:55:50.571Z,82.28
2023-03-15T11:56:56.566Z,81.20
2023-03-15T11:58:21.285Z,81.16
2023-03-15T11:59:28.664Z,82.82
2023-03-15T12:00:35.700Z,83.66
2023-03-15T12:01:38.183Z,84.27
2023-03-15T12:02:48.664Z,84.91
2023-03-15T12:03:52.354Z,85.08
2023-03-15T12:04:54.637Z,85.61
2023-03-15T12:06:05.337Z,85.28
2023-03-15T12:07:31.806Z,84.99
2023-03-15T12:08:36.520Z,85.50
2023-03-15T12:09:39.256Z,85.90
2023-03-15T12:10:45.101Z,85.90
2023-03-15T12:11:46.533Z,85.42
2023-03-15T12:12:56.858Z,85.96
2023-03-15T12:13:58.320Z,85.78
2023-03-15T12:15:35.127Z,85.83
2023-03-15T12:16:42.351Z,85.70
2023-03-15T12:17:50.075Z,85.74
2023-03-15T12:18:52.653Z,85.50
2023-03-15T12:20:02.097Z,85.62
2023-03-15T12:21:14.273Z,85.92
2023-03-15T12:22:16.670Z,85.83
2023-03-15T12:23:18.181Z,85.81
2023-03-15T12:24:24.823Z,86.06
2023-03-15T12:25:33.922Z,86.07
2023-03-15T12:26:36.826Z,85.89
2023-03-15T12:27:49.301Z,85.85
2023-03-15T12:29:03.958Z,86.05
2023-03-15T12:30:20.024Z,85.79
2023-03-15T12:31:24.272Z,84.88
2023-03-15T12:32:27.656Z,85.02
2023-03-15T12:33:34.185Z,85.42
2023-03-15T12:34:48.503Z,85.16
2023-03-15T12:35:52.705Z,84.19
2023-03-15T12:36:57.059Z,84.39
2023-03-15T12:38:03.463Z,84.74
2023-03-15T12:39:14.296Z,84.57
2023-03-15T12:40:15.769Z,84.08
2023-03-15T12:41:36.092Z,83.09
2023-03-15T12:42:38.860Z,83.14
2023-03-15T12:43:43.358Z,83.05
2023-03-15T12:44:44.946Z,83.27
2023-03-15T12:45:46.604Z,83.80
2023-03-15T12:46:48.977Z,84.02
2023-03-15T12:47:50.692Z,84.53
2023-03-15T12:49:05.174Z,84.69
2023-03-15T12:50:25.320Z,84.38
2023-03-15T12:51:53.715Z,84.18
2023-03-15T12:52:58.632Z,83.97
2023-03-15T12:54:05.871Z,83.88
2023-03-15T12:55:10.334Z,81.90
2023-03-15T12:56:33.703Z,81.34
2023-03-15T12:57:39.784Z,81.60
2023-03-15T12:58:44.865Z,81.17
2023-03-15T13:00:00.804Z,81.53
2023-03-15T13:01:05.372Z,81.74
2023-03-15T13:02:41.695Z,81.92
2023-03-15T13:03:44.557Z,81.60
2023-03-15T13:04:49.895Z,80.84
2023-03-15T13:06:03.313Z,81.20
2023-03-15T13:07:17.733Z,80.39
2023-03-15T13:08:19.284Z,80.31
2023-03-15T13:09:46.457Z,80.34
2023-03-15T13:10:50.587Z,80.55
2023-03-15T13:12:08.391Z,80.80
2023-03-15T13:13:20.057Z,79.61
2023-03-15T13:14:40.372Z,80.42
2023-03-15T13:15:44.762Z,80.60
2023-03-15T13:17:07.098Z,80.54
2023-03-15T13:18:21.509Z,80.94
2023-03-15T13:19:31.265Z,80.64
2023-03-15T13:20:46.382Z,80.76
2023-03-15T13:21:57.019Z,81.11
2023-03-15T13:23:17.607Z,81.65
2023-03-15T13:24:25.999Z,82.29
2023-03-15T13:25:32.020Z,82.76
2023-03-15T13:26:51.256Z,83.23
2023-03-15T13:27:57.747Z,83.47
2023-03-15T13:29:01.010Z,83.49
2023-03-15T13:30:10.530Z,83.54
2023-03-15T13:31:14.467Z,83.36
2023-03-15T13:32:18.226Z,83.74
2023-03-15T13:33:30.218Z,83.93
2023-03-15T13:34:34.251Z,83.88
2023-03-15T13:36:01.715Z,83.87
2023-03-15T13:37:04.003Z,84.48
2023-03-15T13:38:25.295Z,84.36
2023-03-15T13:39:28.096Z,84.89
2023-03-15T13:40:32.134Z,85.13
2023-03-15T13:41:33.970Z,85.34
2023-03-15T13:42:39.264Z,85.67
2023-03-15T13:43:42.437Z,85.37
2023-03-15T13:44:46.620Z,84.92
2023-03-15T13:45:48.894Z,84.92
2023-03-15T13:46:51.217Z,84.63
2023-03-15T13:47:52.845Z,83.61
2023-03-15T13:48:59.043Z,83.56
2023-03-15T13:50:04.265Z,83.71
2023-03-15T13:51:20.722Z,83.62
2023-03-15T13:52:22.729Z,83.31
2023-03-15T13:53:35.644Z,83.08
2023-03-15T13:54:45.836Z,83.09
2023-03-15T13:55:50.994Z,83.07
2023-03-15T13:56:58.318Z,82.78
2023-03-15T13:58:04.256Z,82.95
2023-03-15T13:59:11.601Z,83.33
2023-03-15T14:00:16.978Z,82.89
2023-03-15T14:01:25.496Z,83.21
2023-03-15T14:02:41.287Z,83.67
2023-03-15T14:03:44.325Z,83.71
2023-03-15T14:04:49.803Z,84.13
2023-03-15T14:05:52.747Z,84.10
2023-03-15T14:07:22.865Z,84.31
2023-03-15T14:08:32.193Z,84.83
2023-03-15T14:09:33.913Z,85.04
2023-03-15T14:10:36.899Z,84.88
2023-03-15T14:11:41.485Z,84.96
2023-03-15T14:12:46.460Z,85.17
2023-03-15T14:14:02.081Z,85.37
2023-03-15T14:15:04.414Z,85.49
2023-03-15T14:16:17.650Z,85.52
2023-03-15T14:17:24.573Z,84.43
2023-03-15T14:18:31.149Z,84.11
2023-03-15T14:19:34.607Z,83.97
2023-03-15T14:20:47.609Z,83.90